sensor_id;sensor_type;location;lat;lon;timestamp;P1;durP1;ratioP1;P2;durP2;ratioP2
23242;SDS011;11790;49.578;11.214;2023-08-08T00:03:03;4.33;;;3.00;;
23242;SDS011;11790;49.578;11.214;2023-08-08T00:08:04;5.93;;;3.47;;
23242;SDS011;11790;49.578;11.214;2023-08-08T00:13:04;6.65;;;3.85;;
23242;SDS011;11790;49.578;11.214;2023-08-08T00:18:04;5.20;;;3.38;;
23242;SDS011;11790;49.578;11.214;2023-08-08T00:23:05;9.33;;;4.03;;
23242;SDS011;11790;49.578;11.214;2023-08-08T00:28:05;5.72;;;3.15;;
23242;SDS011;11790;49.578;11.214;2023-08-08T00:33:05;4.63;;;3.43;;
23242;SDS011;11790;49.578;11.214;2023-08-08T00:38:05;7.07;;;3.55;;
23242;SDS011;11790;49.578;11.214;2023-08-08T00:43:05;7.45;;;3.50;;
23242;SDS011;11790;49.578;11.214;2023-08-08T00:48:06;7.43;;;3.63;;
23242;SDS011;11790;49.578;11.214;2023-08-08T00:53:06;4.55;;;3.47;;
23242;SDS011;11790;49.578;11.214;2023-08-08T00:58:06;5.72;;;3.80;;
23242;SDS011;11790;49.578;11.214;2023-08-08T01:03:07;5.95;;;3.97;;
23242;SDS011;11790;49.578;11.214;2023-08-08T01:08:08;7.97;;;4.03;;
23242;SDS011;11790;49.578;11.214;2023-08-08T01:13:10;7.20;;;3.92;;
23242;SDS011;11790;49.578;11.214;2023-08-08T01:18:12;8.85;;;4.30;;
23242;SDS011;11790;49.578;11.214;2023-08-08T01:23:32;5.53;;;4.07;;
23242;SDS011;11790;49.578;11.214;2023-08-08T01:28:33;7.30;;;4.30;;
23242;SDS011;11790;49.578;11.214;2023-08-08T01:33:33;6.30;;;4.40;;
23242;SDS011;11790;49.578;11.214;2023-08-08T01:38:41;8.45;;;5.55;;
23242;SDS011;11790;49.578;11.214;2023-08-08T01:43:42;7.55;;;5.55;;
23242;SDS011;11790;49.578;11.214;2023-08-08T01:48:45;9.43;;;5.10;;
23242;SDS011;11790;49.578;11.214;2023-08-08T01:53:46;6.97;;;4.93;;
23242;SDS011;11790;49.578;11.214;2023-08-08T01:58:47;6.38;;;4.88;;
23242;SDS011;11790;49.578;11.214;2023-08-08T02:03:47;8.98;;;4.70;;
23242;SDS011;11790;49.578;11.214;2023-08-08T02:08:47;7.55;;;5.20;;
23242;SDS011;11790;49.578;11.214;2023-08-08T02:13:47;7.95;;;5.20;;
23242;SDS011;11790;49.578;11.214;2023-08-08T02:18:47;6.30;;;4.25;;
23242;SDS011;11790;49.578;11.214;2023-08-08T02:23:47;6.38;;;4.35;;
23242;SDS011;11790;49.578;11.214;2023-08-08T02:28:49;5.50;;;3.90;;
23242;SDS011;11790;49.578;11.214;2023-08-08T02:33:49;12.05;;;4.60;;
23242;SDS011;11790;49.578;11.214;2023-08-08T02:38:52;7.05;;;4.10;;
23242;SDS011;11790;49.578;11.214;2023-08-08T02:43:53;5.00;;;4.00;;
23242;SDS011;11790;49.578;11.214;2023-08-08T02:48:53;6.75;;;4.70;;
23242;SDS011;11790;49.578;11.214;2023-08-08T02:53:53;9.15;;;4.60;;
23242;SDS011;11790;49.578;11.214;2023-08-08T02:58:54;6.68;;;3.95;;
23242;SDS011;11790;49.578;11.214;2023-08-08T03:03:54;8.65;;;4.07;;
23242;SDS011;11790;49.578;11.214;2023-08-08T03:08:54;6.78;;;4.28;;
23242;SDS011;11790;49.578;11.214;2023-08-08T03:13:54;8.35;;;4.10;;
23242;SDS011;11790;49.578;11.214;2023-08-08T03:18:55;7.30;;;4.20;;
23242;SDS011;11790;49.578;11.214;2023-08-08T03:23:55;6.43;;;4.35;;
23242;SDS011;11790;49.578;11.214;2023-08-08T03:28:55;10.43;;;4.03;;
23242;SDS011;11790;49.578;11.214;2023-08-08T03:33:56;6.50;;;3.83;;
23242;SDS011;11790;49.578;11.214;2023-08-08T03:38:56;6.22;;;4.40;;
23242;SDS011;11790;49.578;11.214;2023-08-08T03:43:56;7.63;;;4.15;;
23242;SDS011;11790;49.578;11.214;2023-08-08T03:48:56;7.30;;;4.05;;
23242;SDS011;11790;49.578;11.214;2023-08-08T03:53:57;5.55;;;3.85;;
23242;SDS011;11790;49.578;11.214;2023-08-08T03:58:57;6.47;;;4.17;;
23242;SDS011;11790;49.578;11.214;2023-08-08T04:03:57;5.35;;;3.90;;
23242;SDS011;11790;49.578;11.214;2023-08-08T04:08:58;4.55;;;3.72;;
23242;SDS011;11790;49.578;11.214;2023-08-08T04:13:58;4.47;;;3.20;;
23242;SDS011;11790;49.578;11.214;2023-08-08T04:18:58;4.20;;;3.33;;
23242;SDS011;11790;49.578;11.214;2023-08-08T04:23:59;7.65;;;4.07;;
23242;SDS011;11790;49.578;11.214;2023-08-08T04:28:59;4.38;;;3.63;;
23242;SDS011;11790;49.578;11.214;2023-08-08T04:34:00;6.65;;;4.13;;
23242;SDS011;11790;49.578;11.214;2023-08-08T04:39:00;5.45;;;3.53;;
23242;SDS011;11790;49.578;11.214;2023-08-08T04:44:01;6.72;;;3.70;;
23242;SDS011;11790;49.578;11.214;2023-08-08T04:49:01;4.78;;;3.78;;
23242;SDS011;11790;49.578;11.214;2023-08-08T04:54:01;5.10;;;3.63;;
23242;SDS011;11790;49.578;11.214;2023-08-08T04:59:01;7.70;;;4.00;;
23242;SDS011;11790;49.578;11.214;2023-08-08T05:04:02;7.18;;;4.13;;
23242;SDS011;11790;49.578;11.214;2023-08-08T05:09:02;7.07;;;4.23;;
23242;SDS011;11790;49.578;11.214;2023-08-08T05:14:03;5.88;;;3.72;;
23242;SDS011;11790;49.578;11.214;2023-08-08T05:19:03;4.95;;;3.80;;
23242;SDS011;11790;49.578;11.214;2023-08-08T05:24:04;4.80;;;3.33;;
23242;SDS011;11790;49.578;11.214;2023-08-08T05:29:04;9.57;;;3.83;;
23242;SDS011;11790;49.578;11.214;2023-08-08T05:34:04;4.68;;;3.17;;
23242;SDS011;11790;49.578;11.214;2023-08-08T05:39:04;5.35;;;3.40;;
23242;SDS011;11790;49.578;11.214;2023-08-08T05:44:06;6.10;;;3.60;;
23242;SDS011;11790;49.578;11.214;2023-08-08T05:49:07;6.05;;;3.67;;
23242;SDS011;11790;49.578;11.214;2023-08-08T05:54:07;6.65;;;3.85;;
23242;SDS011;11790;49.578;11.214;2023-08-08T05:59:07;5.93;;;3.70;;
23242;SDS011;11790;49.578;11.214;2023-08-08T06:04:07;4.97;;;3.22;;
23242;SDS011;11790;49.578;11.214;2023-08-08T06:09:07;4.93;;;3.20;;
23242;SDS011;11790;49.578;11.214;2023-08-08T06:14:08;7.32;;;3.03;;
23242;SDS011;11790;49.578;11.214;2023-08-08T06:19:09;5.40;;;2.78;;
23242;SDS011;11790;49.578;11.214;2023-08-08T06:24:10;5.97;;;2.38;;
23242;SDS011;11790;49.578;11.214;2023-08-08T06:29:10;2.78;;;1.88;;
23242;SDS011;11790;49.578;11.214;2023-08-08T06:34:12;4.38;;;2.15;;
23242;SDS011;11790;49.578;11.214;2023-08-08T06:39:12;6.30;;;1.95;;
23242;SDS011;11790;49.578;11.214;2023-08-08T06:44:12;3.23;;;1.47;;
23242;SDS011;11790;49.578;11.214;2023-08-08T06:49:13;3.67;;;1.80;;
23242;SDS011;11790;49.578;11.214;2023-08-08T06:54:13;3.65;;;1.73;;
23242;SDS011;11790;49.578;11.214;2023-08-08T06:59:13;2.72;;;1.60;;
23242;SDS011;11790;49.578;11.214;2023-08-08T07:04:13;1.92;;;1.60;;
23242;SDS011;11790;49.578;11.214;2023-08-08T07:09:14;4.22;;;1.63;;
23242;SDS011;11790;49.578;11.214;2023-08-08T07:14:14;3.97;;;1.60;;
23242;SDS011;11790;49.578;11.214;2023-08-08T07:19:14;2.58;;;1.63;;
23242;SDS011;11790;49.578;11.214;2023-08-08T07:24:16;3.10;;;1.55;;
23242;SDS011;11790;49.578;11.214;2023-08-08T07:29:16;2.67;;;1.60;;
23242;SDS011;11790;49.578;11.214;2023-08-08T07:34:16;3.35;;;1.48;;
23242;SDS011;11790;49.578;11.214;2023-08-08T07:39:16;2.30;;;1.48;;
23242;SDS011;11790;49.578;11.214;2023-08-08T07:44:16;2.58;;;1.40;;
23242;SDS011;11790;49.578;11.214;2023-08-08T07:49:17;1.63;;;1.33;;
23242;SDS011;11790;49.578;11.214;2023-08-08T07:54:19;3.65;;;1.35;;
23242;SDS011;11790;49.578;11.214;2023-08-08T07:59:19;3.13;;;1.33;;
23242;SDS011;11790;49.578;11.214;2023-08-08T08:04:19;2.30;;;1.30;;
23242;SDS011;11790;49.578;11.214;2023-08-08T08:09:19;2.25;;;1.23;;
23242;SDS011;11790;49.578;11.214;2023-08-08T08:14:20;4.05;;;1.10;;
23242;SDS011;11790;49.578;11.214;2023-08-08T08:19:20;3.28;;;1.50;;
23242;SDS011;11790;49.578;11.214;2023-08-08T08:24:21;1.45;;;1.13;;
23242;SDS011;11790;49.578;11.214;2023-08-08T08:29:21;3.75;;;1.42;;
23242;SDS011;11790;49.578;11.214;2023-08-08T08:34:21;3.55;;;1.17;;
23242;SDS011;11790;49.578;11.214;2023-08-08T08:39:21;1.98;;;1.27;;
23242;SDS011;11790;49.578;11.214;2023-08-08T08:44:21;4.20;;;1.20;;
23242;SDS011;11790;49.578;11.214;2023-08-08T08:49:22;2.05;;;0.90;;
23242;SDS011;11790;49.578;11.214;2023-08-08T08:54:22;2.00;;;1.00;;
23242;SDS011;11790;49.578;11.214;2023-08-08T08:59:23;1.60;;;0.90;;
23242;SDS011;11790;49.578;11.214;2023-08-08T09:04:24;2.78;;;1.00;;
23242;SDS011;11790;49.578;11.214;2023-08-08T09:09:24;1.75;;;1.00;;
23242;SDS011;11790;49.578;11.214;2023-08-08T09:14:25;1.67;;;1.17;;
23242;SDS011;11790;49.578;11.214;2023-08-08T09:19:25;2.30;;;0.80;;
23242;SDS011;11790;49.578;11.214;2023-08-08T09:24:25;5.03;;;0.90;;
23242;SDS011;11790;49.578;11.214;2023-08-08T09:29:26;5.55;;;0.90;;
23242;SDS011;11790;49.578;11.214;2023-08-08T09:34:26;1.23;;;0.60;;
23242;SDS011;11790;49.578;11.214;2023-08-08T09:39:26;1.98;;;0.80;;
23242;SDS011;11790;49.578;11.214;2023-08-08T09:44:27;5.22;;;0.82;;
23242;SDS011;11790;49.578;11.214;2023-08-08T09:49:29;1.65;;;0.77;;
23242;SDS011;11790;49.578;11.214;2023-08-08T09:54:31;2.28;;;0.88;;
23242;SDS011;11790;49.578;11.214;2023-08-08T09:59:32;1.15;;;0.77;;
23242;SDS011;11790;49.578;11.214;2023-08-08T10:04:32;3.03;;;1.00;;
23242;SDS011;11790;49.578;11.214;2023-08-08T10:09:33;2.85;;;0.98;;
23242;SDS011;11790;49.578;11.214;2023-08-08T10:14:37;2.13;;;0.90;;
23242;SDS011;11790;49.578;11.214;2023-08-08T10:19:38;2.08;;;0.93;;
23242;SDS011;11790;49.578;11.214;2023-08-08T10:24:38;2.60;;;1.17;;
23242;SDS011;11790;49.578;11.214;2023-08-08T10:29:38;1.80;;;0.82;;
23242;SDS011;11790;49.578;11.214;2023-08-08T10:34:39;2.80;;;0.90;;
23242;SDS011;11790;49.578;11.214;2023-08-08T10:39:52;1.45;;;0.90;;
23242;SDS011;11790;49.578;11.214;2023-08-08T10:44:54;2.47;;;1.10;;
23242;SDS011;11790;49.578;11.214;2023-08-08T10:55:04;2.78;;;1.20;;
23242;SDS011;11790;49.578;11.214;2023-08-08T11:00:16;2.13;;;0.98;;
23242;SDS011;11790;49.578;11.214;2023-08-08T11:05:17;3.90;;;1.17;;
23242;SDS011;11790;49.578;11.214;2023-08-08T11:10:18;2.83;;;1.40;;
23242;SDS011;11790;49.578;11.214;2023-08-08T11:15:18;2.93;;;1.10;;
23242;SDS011;11790;49.578;11.214;2023-08-08T11:20:18;5.60;;;1.15;;
23242;SDS011;11790;49.578;11.214;2023-08-08T11:25:18;2.10;;;1.00;;
23242;SDS011;11790;49.578;11.214;2023-08-08T11:30:19;3.43;;;1.10;;
23242;SDS011;11790;49.578;11.214;2023-08-08T11:35:22;2.30;;;1.20;;
23242;SDS011;11790;49.578;11.214;2023-08-08T11:40:23;2.88;;;1.30;;
23242;SDS011;11790;49.578;11.214;2023-08-08T11:45:24;1.38;;;0.98;;
23242;SDS011;11790;49.578;11.214;2023-08-08T11:50:24;3.25;;;1.05;;
23242;SDS011;11790;49.578;11.214;2023-08-08T11:55:28;2.20;;;0.98;;
23242;SDS011;11790;49.578;11.214;2023-08-08T12:00:29;1.58;;;1.15;;
23242;SDS011;11790;49.578;11.214;2023-08-08T12:05:31;3.15;;;0.90;;
23242;SDS011;11790;49.578;11.214;2023-08-08T12:10:35;2.10;;;0.80;;
23242;SDS011;11790;49.578;11.214;2023-08-08T12:15:36;2.25;;;1.10;;
23242;SDS011;11790;49.578;11.214;2023-08-08T12:20:36;3.08;;;1.10;;
23242;SDS011;11790;49.578;11.214;2023-08-08T12:25:36;1.92;;;1.00;;
23242;SDS011;11790;49.578;11.214;2023-08-08T12:30:36;5.25;;;1.80;;
23242;SDS011;11790;49.578;11.214;2023-08-08T12:35:36;2.17;;;1.10;;
23242;SDS011;11790;49.578;11.214;2023-08-08T12:40:37;1.50;;;1.10;;
23242;SDS011;11790;49.578;11.214;2023-08-08T12:45:37;1.95;;;1.20;;
23242;SDS011;11790;49.578;11.214;2023-08-08T12:50:37;3.00;;;1.33;;
23242;SDS011;11790;49.578;11.214;2023-08-08T12:55:37;2.33;;;1.30;;
23242;SDS011;11790;49.578;11.214;2023-08-08T13:00:39;1.60;;;1.17;;
23242;SDS011;11790;49.578;11.214;2023-08-08T13:05:39;2.70;;;1.35;;
23242;SDS011;11790;49.578;11.214;2023-08-08T13:10:39;2.05;;;1.15;;
23242;SDS011;11790;49.578;11.214;2023-08-08T13:15:40;2.80;;;1.30;;
23242;SDS011;11790;49.578;11.214;2023-08-08T13:20:40;4.10;;;1.10;;
23242;SDS011;11790;49.578;11.214;2023-08-08T13:25:40;1.90;;;1.00;;
23242;SDS011;11790;49.578;11.214;2023-08-08T13:30:41;2.00;;;1.30;;
23242;SDS011;11790;49.578;11.214;2023-08-08T13:35:43;2.40;;;1.27;;
23242;SDS011;11790;49.578;11.214;2023-08-08T13:40:43;2.28;;;1.27;;
23242;SDS011;11790;49.578;11.214;2023-08-08T13:45:43;2.40;;;1.30;;
23242;SDS011;11790;49.578;11.214;2023-08-08T13:50:44;2.70;;;1.17;;
23242;SDS011;11790;49.578;11.214;2023-08-08T13:55:44;1.95;;;0.98;;
23242;SDS011;11790;49.578;11.214;2023-08-08T14:00:44;1.77;;;1.10;;
23242;SDS011;11790;49.578;11.214;2023-08-08T14:05:44;2.53;;;1.13;;
23242;SDS011;11790;49.578;11.214;2023-08-08T14:10:44;2.15;;;1.08;;
23242;SDS011;11790;49.578;11.214;2023-08-08T14:15:45;2.45;;;1.13;;
23242;SDS011;11790;49.578;11.214;2023-08-08T14:20:45;2.47;;;1.20;;
23242;SDS011;11790;49.578;11.214;2023-08-08T14:25:45;2.75;;;1.10;;
23242;SDS011;11790;49.578;11.214;2023-08-08T14:30:45;1.55;;;1.00;;
23242;SDS011;11790;49.578;11.214;2023-08-08T14:35:46;1.45;;;0.95;;
23242;SDS011;11790;49.578;11.214;2023-08-08T14:40:46;2.45;;;1.30;;
23242;SDS011;11790;49.578;11.214;2023-08-08T14:45:46;2.87;;;1.23;;
23242;SDS011;11790;49.578;11.214;2023-08-08T14:50:46;3.42;;;1.30;;
23242;SDS011;11790;49.578;11.214;2023-08-08T14:55:47;2.13;;;1.20;;
23242;SDS011;11790;49.578;11.214;2023-08-08T15:00:48;1.33;;;0.90;;
23242;SDS011;11790;49.578;11.214;2023-08-08T15:05:48;2.03;;;1.00;;
23242;SDS011;11790;49.578;11.214;2023-08-08T15:10:48;2.50;;;1.20;;
23242;SDS011;11790;49.578;11.214;2023-08-08T15:15:48;2.72;;;1.20;;
23242;SDS011;11790;49.578;11.214;2023-08-08T15:20:49;4.72;;;1.17;;
23242;SDS011;11790;49.578;11.214;2023-08-08T15:25:49;1.63;;;1.20;;
23242;SDS011;11790;49.578;11.214;2023-08-08T15:30:49;2.42;;;1.17;;
23242;SDS011;11790;49.578;11.214;2023-08-08T15:35:49;1.50;;;1.00;;
23242;SDS011;11790;49.578;11.214;2023-08-08T15:40:50;2.40;;;1.08;;
23242;SDS011;11790;49.578;11.214;2023-08-08T15:45:50;2.38;;;1.23;;
23242;SDS011;11790;49.578;11.214;2023-08-08T15:50:51;3.85;;;1.20;;
23242;SDS011;11790;49.578;11.214;2023-08-08T15:55:51;2.30;;;1.15;;
23242;SDS011;11790;49.578;11.214;2023-08-08T16:00:51;1.63;;;0.98;;
23242;SDS011;11790;49.578;11.214;2023-08-08T16:05:52;1.98;;;0.88;;
23242;SDS011;11790;49.578;11.214;2023-08-08T16:10:52;4.22;;;1.42;;
23242;SDS011;11790;49.578;11.214;2023-08-08T16:15:52;3.67;;;1.10;;
23242;SDS011;11790;49.578;11.214;2023-08-08T16:20:52;1.77;;;0.95;;
23242;SDS011;11790;49.578;11.214;2023-08-08T16:25:53;3.42;;;1.00;;
23242;SDS011;11790;49.578;11.214;2023-08-08T16:30:53;2.13;;;0.90;;
23242;SDS011;11790;49.578;11.214;2023-08-08T16:35:53;11.05;;;1.20;;
23242;SDS011;11790;49.578;11.214;2023-08-08T16:40:53;1.33;;;1.00;;
23242;SDS011;11790;49.578;11.214;2023-08-08T16:45:54;1.58;;;0.93;;
23242;SDS011;11790;49.578;11.214;2023-08-08T16:50:54;1.80;;;0.90;;
23242;SDS011;11790;49.578;11.214;2023-08-08T16:55:56;2.85;;;0.93;;
23242;SDS011;11790;49.578;11.214;2023-08-08T17:00:56;1.77;;;0.90;;
23242;SDS011;11790;49.578;11.214;2023-08-08T17:05:58;1.98;;;1.08;;
23242;SDS011;11790;49.578;11.214;2023-08-08T17:10:59;1.55;;;1.13;;
23242;SDS011;11790;49.578;11.214;2023-08-08T17:15:59;3.15;;;1.20;;
23242;SDS011;11790;49.578;11.214;2023-08-08T17:20:59;3.67;;;1.45;;
23242;SDS011;11790;49.578;11.214;2023-08-08T17:26:01;2.60;;;1.15;;
23242;SDS011;11790;49.578;11.214;2023-08-08T17:31:01;3.72;;;1.80;;
23242;SDS011;11790;49.578;11.214;2023-08-08T17:36:02;5.65;;;2.88;;
23242;SDS011;11790;49.578;11.214;2023-08-08T17:41:02;6.00;;;2.80;;
23242;SDS011;11790;49.578;11.214;2023-08-08T17:46:02;5.53;;;2.40;;
23242;SDS011;11790;49.578;11.214;2023-08-08T17:51:03;5.63;;;2.00;;
23242;SDS011;11790;49.578;11.214;2023-08-08T17:56:03;3.63;;;1.55;;
23242;SDS011;11790;49.578;11.214;2023-08-08T18:01:04;2.70;;;1.50;;
23242;SDS011;11790;49.578;11.214;2023-08-08T18:06:04;1.75;;;1.20;;
23242;SDS011;11790;49.578;11.214;2023-08-08T18:11:05;3.90;;;1.33;;
23242;SDS011;11790;49.578;11.214;2023-08-08T18:16:05;2.22;;;1.35;;
23242;SDS011;11790;49.578;11.214;2023-08-08T18:21:06;2.15;;;1.10;;
23242;SDS011;11790;49.578;11.214;2023-08-08T18:26:06;2.50;;;1.05;;
23242;SDS011;11790;49.578;11.214;2023-08-08T18:31:06;3.08;;;1.40;;
23242;SDS011;11790;49.578;11.214;2023-08-08T18:36:07;2.53;;;1.63;;
23242;SDS011;11790;49.578;11.214;2023-08-08T18:41:08;3.85;;;1.88;;
23242;SDS011;11790;49.578;11.214;2023-08-08T18:46:08;1.60;;;0.90;;
23242;SDS011;11790;49.578;11.214;2023-08-08T18:51:08;2.63;;;1.30;;
23242;SDS011;11790;49.578;11.214;2023-08-08T18:56:09;5.15;;;1.35;;
23242;SDS011;11790;49.578;11.214;2023-08-08T19:01:09;3.03;;;1.60;;
23242;SDS011;11790;49.578;11.214;2023-08-08T19:06:09;2.22;;;1.52;;
23242;SDS011;11790;49.578;11.214;2023-08-08T19:11:10;2.38;;;1.50;;
23242;SDS011;11790;49.578;11.214;2023-08-08T19:16:10;3.83;;;1.77;;
23242;SDS011;11790;49.578;11.214;2023-08-08T19:21:10;7.20;;;1.70;;
23242;SDS011;11790;49.578;11.214;2023-08-08T19:26:11;3.33;;;1.58;;
23242;SDS011;11790;49.578;11.214;2023-08-08T19:31:11;2.33;;;1.05;;
23242;SDS011;11790;49.578;11.214;2023-08-08T19:36:12;4.15;;;1.40;;
23242;SDS011;11790;49.578;11.214;2023-08-08T19:41:12;2.30;;;1.13;;
23242;SDS011;11790;49.578;11.214;2023-08-08T19:46:12;2.08;;;1.30;;
23242;SDS011;11790;49.578;11.214;2023-08-08T19:51:14;2.42;;;1.35;;
23242;SDS011;11790;49.578;11.214;2023-08-08T19:56:15;5.65;;;1.73;;
23242;SDS011;11790;49.578;11.214;2023-08-08T20:01:15;2.40;;;1.20;;
23242;SDS011;11790;49.578;11.214;2023-08-08T20:06:16;4.07;;;1.80;;
23242;SDS011;11790;49.578;11.214;2023-08-08T20:11:16;4.85;;;1.55;;
23242;SDS011;11790;49.578;11.214;2023-08-08T20:16:16;3.13;;;1.35;;
23242;SDS011;11790;49.578;11.214;2023-08-08T20:21:17;1.90;;;1.05;;
23242;SDS011;11790;49.578;11.214;2023-08-08T20:26:17;1.83;;;1.40;;
23242;SDS011;11790;49.578;11.214;2023-08-08T20:31:17;2.83;;;1.40;;
23242;SDS011;11790;49.578;11.214;2023-08-08T20:36:17;3.40;;;1.70;;
23242;SDS011;11790;49.578;11.214;2023-08-08T20:41:18;3.72;;;1.50;;
23242;SDS011;11790;49.578;11.214;2023-08-08T20:46:18;1.98;;;1.30;;
23242;SDS011;11790;49.578;11.214;2023-08-08T20:51:19;5.10;;;1.40;;
23242;SDS011;11790;49.578;11.214;2023-08-08T20:56:19;2.20;;;1.42;;
23242;SDS011;11790;49.578;11.214;2023-08-08T21:01:20;2.13;;;1.10;;
23242;SDS011;11790;49.578;11.214;2023-08-08T21:06:20;1.98;;;1.40;;
23242;SDS011;11790;49.578;11.214;2023-08-08T21:11:20;3.60;;;1.17;;
23242;SDS011;11790;49.578;11.214;2023-08-08T21:16:20;2.58;;;1.35;;
23242;SDS011;11790;49.578;11.214;2023-08-08T21:21:21;3.53;;;1.23;;
23242;SDS011;11790;49.578;11.214;2023-08-08T21:26:21;1.85;;;1.15;;
23242;SDS011;11790;49.578;11.214;2023-08-08T21:31:21;2.30;;;1.10;;
23242;SDS011;11790;49.578;11.214;2023-08-08T21:36:21;3.22;;;1.50;;
23242;SDS011;11790;49.578;11.214;2023-08-08T21:41:21;2.50;;;1.35;;
23242;SDS011;11790;49.578;11.214;2023-08-08T21:46:21;4.72;;;1.33;;
23242;SDS011;11790;49.578;11.214;2023-08-08T21:51:22;1.75;;;1.30;;
23242;SDS011;11790;49.578;11.214;2023-08-08T21:56:22;3.08;;;1.60;;
23242;SDS011;11790;49.578;11.214;2023-08-08T22:01:23;3.35;;;1.50;;
23242;SDS011;11790;49.578;11.214;2023-08-08T22:06:23;3.45;;;1.48;;
23242;SDS011;11790;49.578;11.214;2023-08-08T22:11:23;2.53;;;1.63;;
23242;SDS011;11790;49.578;11.214;2023-08-08T22:16:23;2.78;;;1.50;;
23242;SDS011;11790;49.578;11.214;2023-08-08T22:21:24;2.05;;;1.48;;
23242;SDS011;11790;49.578;11.214;2023-08-08T22:26:24;3.70;;;1.35;;
23242;SDS011;11790;49.578;11.214;2023-08-08T22:31:24;2.95;;;1.40;;
23242;SDS011;11790;49.578;11.214;2023-08-08T22:36:25;3.75;;;1.60;;
23242;SDS011;11790;49.578;11.214;2023-08-08T22:41:25;2.67;;;1.30;;
23242;SDS011;11790;49.578;11.214;2023-08-08T22:46:25;3.57;;;1.43;;
23242;SDS011;11790;49.578;11.214;2023-08-08T22:51:25;4.70;;;1.80;;
23242;SDS011;11790;49.578;11.214;2023-08-08T22:56:26;2.95;;;1.50;;
23242;SDS011;11790;49.578;11.214;2023-08-08T23:01:26;5.88;;;1.63;;
23242;SDS011;11790;49.578;11.214;2023-08-08T23:06:26;2.30;;;1.50;;
23242;SDS011;11790;49.578;11.214;2023-08-08T23:11:26;4.35;;;1.60;;
23242;SDS011;11790;49.578;11.214;2023-08-08T23:16:26;2.58;;;1.50;;
23242;SDS011;11790;49.578;11.214;2023-08-08T23:21:26;4.55;;;1.65;;
23242;SDS011;11790;49.578;11.214;2023-08-08T23:26:27;3.08;;;1.90;;
23242;SDS011;11790;49.578;11.214;2023-08-08T23:31:27;3.38;;;1.42;;
23242;SDS011;11790;49.578;11.214;2023-08-08T23:36:27;3.88;;;1.50;;
23242;SDS011;11790;49.578;11.214;2023-08-08T23:41:27;2.00;;;1.58;;
23242;SDS011;11790;49.578;11.214;2023-08-08T23:46:27;3.25;;;1.73;;
23242;SDS011;11790;49.578;11.214;2023-08-08T23:51:28;5.60;;;1.90;;
23242;SDS011;11790;49.578;11.214;2023-08-08T23:56:28;3.00;;;2.08;;
